createdAt,value
2023-02-22T00:04:55.584Z,15.70
2023-02-22T00:07:24.971Z,18.00
2023-02-22T00:09:53.562Z,22.58
2023-02-22T00:12:22.098Z,17.52
2023-02-22T00:14:52.804Z,17.45
2023-02-22T00:17:23.845Z,14.73
2023-02-22T00:19:52.382Z,15.25
2023-02-22T00:22:21.509Z,15.88
2023-02-22T00:24:52.429Z,14.88
2023-02-22T00:27:20.995Z,20.40
2023-02-22T00:29:51.610Z,21.58
2023-02-22T00:32:19.965Z,25.75
2023-02-22T00:34:48.300Z,19.30
2023-02-22T00:37:18.291Z,17.70
2023-02-22T00:39:48.337Z,16.92
2023-02-22T00:42:16.700Z,17.05
2023-02-22T00:44:46.782Z,15.45
2023-02-22T00:47:17.510Z,17.08
2023-02-22T00:49:46.014Z,15.20
2023-02-22T00:52:14.370Z,15.30
2023-02-22T00:54:42.996Z,13.82
2023-02-22T00:57:11.540Z,17.27
2023-02-22T00:59:40.116Z,12.18
2023-02-22T01:02:12.876Z,15.60
2023-02-22T01:04:47.068Z,18.55
2023-02-22T01:07:17.873Z,18.83
2023-02-22T01:09:47.911Z,17.58
2023-02-22T01:12:16.161Z,16.50
2023-02-22T01:14:44.628Z,17.63
2023-02-22T01:17:12.865Z,20.10
2023-02-22T01:19:44.854Z,18.58
2023-02-22T01:22:19.691Z,16.02
2023-02-22T01:24:48.385Z,16.33
2023-02-22T01:27:16.945Z,12.40
2023-02-22T01:29:45.336Z,13.90
2023-02-22T01:32:15.325Z,11.70
2023-02-22T01:34:43.733Z,11.63
2023-02-22T01:37:11.919Z,14.82
2023-02-22T01:39:43.947Z,15.52
2023-02-22T01:42:14.741Z,14.07
2023-02-22T01:44:43.617Z,14.52
2023-02-22T01:47:12.282Z,13.98
2023-02-22T01:49:46.078Z,14.02
2023-02-22T01:52:17.940Z,16.60
2023-02-22T01:54:50.771Z,12.95
2023-02-22T01:57:24.927Z,15.98
2023-02-22T01:59:57.708Z,12.73
2023-02-22T02:02:27.541Z,10.57
2023-02-22T02:04:57.640Z,12.82
2023-02-22T02:07:29.584Z,11.75
2023-02-22T02:10:01.427Z,12.93
2023-02-22T02:12:32.706Z,12.45
2023-02-22T02:15:22.040Z,14.57
2023-02-22T02:17:52.149Z,9.10
2023-02-22T02:20:31.977Z,15.30
2023-02-22T02:23:11.957Z,12.75
2023-02-22T02:26:06.915Z,13.75
2023-02-22T02:29:13.430Z,10.02
2023-02-22T02:32:29.467Z,12.55
2023-02-22T02:35:05.382Z,12.60
2023-02-22T02:37:39.410Z,12.30
2023-02-22T02:40:19.292Z,17.02
2023-02-22T02:42:55.720Z,18.65
2023-02-22T02:45:30.497Z,25.15
2023-02-22T02:48:09.930Z,20.70
2023-02-22T02:50:44.818Z,23.25
2023-02-22T02:53:13.744Z,15.90
2023-02-22T02:55:42.025Z,18.50
2023-02-22T02:58:10.792Z,19.25
2023-02-22T03:00:43.234Z,17.88
2023-02-22T03:03:53.444Z,22.05
2023-02-22T03:06:53.726Z,15.82
2023-02-22T03:09:30.560Z,13.43
2023-02-22T03:12:09.132Z,13.65
2023-02-22T03:14:44.024Z,19.40
2023-02-22T03:17:19.326Z,14.52
2023-02-22T03:19:53.407Z,14.48
2023-02-22T03:22:27.732Z,17.17
2023-02-22T03:25:07.175Z,16.80
2023-02-22T03:27:43.805Z,19.63
2023-02-22T03:30:17.215Z,18.85
2023-02-22T03:32:52.123Z,17.92
2023-02-22T03:35:24.385Z,17.35
2023-02-22T03:37:59.745Z,14.43
2023-02-22T03:40:33.704Z,15.00
2023-02-22T03:43:07.889Z,17.60
2023-02-22T03:45:38.844Z,13.07
2023-02-22T03:48:13.798Z,14.85
2023-02-22T03:50:43.556Z,13.45
2023-02-22T03:53:11.822Z,14.02
2023-02-22T03:55:40.363Z,12.65
2023-02-22T03:58:14.859Z,12.05
2023-02-22T04:00:44.607Z,15.02
2023-02-22T04:03:13.303Z,11.60
2023-02-22T04:05:42.674Z,10.27
2023-02-22T04:08:12.489Z,12.65
2023-02-22T04:10:41.090Z,15.80
2023-02-22T04:13:10.584Z,12.88
2023-02-22T04:15:38.880Z,12.55
2023-02-22T04:18:07.432Z,13.45
2023-02-22T04:20:35.767Z,15.40
2023-02-22T04:23:04.196Z,15.70
2023-02-22T04:25:36.978Z,14.43
2023-02-22T04:28:06.119Z,15.68
2023-02-22T04:30:34.450Z,15.63
2023-02-22T04:33:02.988Z,13.73
2023-02-22T04:35:35.289Z,13.90
2023-02-22T04:38:04.357Z,16.45
2023-02-22T04:40:35.038Z,14.82
2023-02-22T04:43:03.551Z,15.80
2023-02-22T04:45:32.405Z,15.38
2023-02-22T04:48:00.975Z,18.63
2023-02-22T04:50:31.972Z,18.55
2023-02-22T04:53:00.198Z,21.50
2023-02-22T04:55:29.115Z,15.02
2023-02-22T04:57:59.265Z,23.48
2023-02-22T05:00:27.752Z,15.75
2023-02-22T05:02:56.678Z,16.30
2023-02-22T05:05:25.921Z,15.13
2023-02-22T05:07:54.614Z,17.92
2023-02-22T05:10:23.901Z,18.65
2023-02-22T05:12:53.899Z,11.13
2023-02-22T05:15:25.414Z,15.35
2023-02-22T05:17:55.572Z,15.85
2023-02-22T05:20:28.165Z,18.05
2023-02-22T05:22:58.198Z,16.25
2023-02-22T05:25:26.683Z,16.70
2023-02-22T05:27:57.316Z,14.75
2023-02-22T05:30:34.391Z,17.33
2023-02-22T05:33:03.108Z,14.20
2023-02-22T05:35:31.988Z,16.10
2023-02-22T05:38:02.113Z,14.70
2023-02-22T05:40:33.011Z,19.00
2023-02-22T05:43:02.219Z,18.65
2023-02-22T05:45:34.142Z,17.75
2023-02-22T05:48:05.036Z,21.65
2023-02-22T05:50:33.690Z,16.52
2023-02-22T05:53:06.834Z,19.00
2023-02-22T05:55:36.601Z,16.55
2023-02-22T05:58:06.132Z,19.13
2023-02-22T06:00:38.379Z,17.60
2023-02-22T06:03:09.132Z,22.95
2023-02-22T06:05:37.821Z,22.55
2023-02-22T06:08:08.630Z,23.17
2023-02-22T06:10:38.214Z,20.10
2023-02-22T06:13:08.641Z,21.42
2023-02-22T06:15:40.740Z,21.40
2023-02-22T06:18:14.151Z,22.17
2023-02-22T06:20:42.785Z,22.00
2023-02-22T06:23:11.409Z,22.15
2023-02-22T06:25:39.869Z,22.63
2023-02-22T06:28:08.374Z,25.52
2023-02-22T06:30:38.387Z,25.80
2023-02-22T06:33:07.102Z,20.85
2023-02-22T06:35:37.899Z,23.83
2023-02-22T06:38:06.721Z,19.45
2023-02-22T06:40:35.290Z,24.05
2023-02-22T06:43:03.508Z,20.33
2023-02-22T06:45:33.287Z,24.00
2023-02-22T06:48:05.322Z,22.08
2023-02-22T06:50:35.952Z,23.20
2023-02-22T06:53:04.843Z,23.45
2023-02-22T06:55:38.018Z,24.67
2023-02-22T06:58:07.846Z,24.27
2023-02-22T07:00:36.481Z,20.17
2023-02-22T07:03:08.170Z,26.60
2023-02-22T07:05:36.538Z,23.02
2023-02-22T07:08:09.876Z,21.73
2023-02-22T07:10:41.705Z,19.88
2023-02-22T07:13:10.865Z,28.60
2023-02-22T07:15:39.231Z,24.90
2023-02-22T07:18:12.096Z,27.45
2023-02-22T07:20:40.960Z,27.98
2023-02-22T07:23:09.241Z,26.52
2023-02-22T07:25:37.791Z,25.35
2023-02-22T07:28:06.684Z,28.58
2023-02-22T07:30:35.870Z,37.33
2023-02-22T07:33:05.409Z,28.60
2023-02-22T07:35:39.056Z,24.95
2023-02-22T07:38:10.125Z,25.90
2023-02-22T07:40:41.289Z,35.17
2023-02-22T07:43:17.608Z,33.67
2023-02-22T07:45:47.114Z,36.15
2023-02-22T07:48:17.566Z,32.97
2023-02-22T07:50:47.736Z,33.33
2023-02-22T07:53:20.138Z,39.42
2023-02-22T07:55:51.274Z,34.38
2023-02-22T07:58:21.418Z,37.92
2023-02-22T08:00:52.520Z,34.03
2023-02-22T08:03:25.428Z,29.20
2023-02-22T08:05:56.830Z,34.80
2023-02-22T08:08:29.150Z,29.23
2023-02-22T08:10:57.915Z,25.02
2023-02-22T08:13:26.359Z,28.63
2023-02-22T08:15:56.359Z,22.60
2023-02-22T08:18:25.753Z,25.48
2023-02-22T08:20:56.445Z,25.35
2023-02-22T08:23:26.983Z,25.92
2023-02-22T08:25:55.447Z,21.38
2023-02-22T08:28:26.275Z,26.80
2023-02-22T08:30:54.959Z,26.65
2023-02-22T08:33:25.020Z,22.42
2023-02-22T08:35:55.191Z,22.23
2023-02-22T08:38:27.745Z,29.42
2023-02-22T08:40:56.541Z,23.20
2023-02-22T08:43:25.203Z,23.45
2023-02-22T08:45:57.600Z,27.65
2023-02-22T08:48:28.486Z,23.20
2023-02-22T08:50:58.304Z,21.20
2023-02-22T08:53:26.643Z,23.35
2023-02-22T08:55:57.605Z,24.38
2023-02-22T08:58:26.228Z,21.02
2023-02-22T09:00:55.513Z,23.67
2023-02-22T09:03:24.630Z,25.05
2023-02-22T09:05:55.136Z,23.70
2023-02-22T09:08:25.045Z,20.48
2023-02-22T09:10:53.557Z,25.27
2023-02-22T09:13:24.257Z,20.27
2023-02-22T09:15:52.536Z,25.23
2023-02-22T09:18:21.263Z,23.92
2023-02-22T09:20:49.739Z,21.38
2023-02-22T09:23:21.700Z,20.98
2023-02-22T09:25:53.965Z,22.05
2023-02-22T09:28:22.729Z,20.13
2023-02-22T09:30:51.618Z,23.35
2023-02-22T09:33:21.767Z,20.63
2023-02-22T09:35:51.182Z,19.60
2023-02-22T09:38:23.002Z,19.90
2023-02-22T09:40:55.173Z,21.65
2023-02-22T09:43:36.036Z,22.17
2023-02-22T09:46:19.127Z,21.55
2023-02-22T09:48:59.357Z,19.88
2023-02-22T09:51:36.759Z,20.85
2023-02-22T09:54:14.808Z,20.50
2023-02-22T09:56:48.990Z,27.17
2023-02-22T09:59:22.942Z,16.40
2023-02-22T10:01:58.934Z,17.17
2023-02-22T10:04:42.085Z,16.23
2023-02-22T10:07:19.819Z,14.40
2023-02-22T10:09:51.514Z,16.10
2023-02-22T10:12:30.779Z,15.70
2023-02-22T10:15:34.602Z,14.68
2023-02-22T10:20:49.316Z,15.05
2023-02-22T10:23:28.619Z,16.73
2023-02-22T10:26:10.088Z,16.90
2023-02-22T10:28:58.205Z,17.35
2023-02-22T10:31:33.485Z,19.45
2023-02-22T10:34:10.778Z,18.27
2023-02-22T10:36:39.634Z,13.70
2023-02-22T10:39:21.918Z,16.30
2023-02-22T10:41:56.072Z,12.82
2023-02-22T10:44:26.024Z,15.00
2023-02-22T10:46:54.981Z,14.63
2023-02-22T10:49:26.739Z,13.23
2023-02-22T10:52:03.175Z,15.05
2023-02-22T10:54:38.305Z,13.63
2023-02-22T10:57:13.591Z,13.68
2023-02-22T10:59:43.870Z,13.25
2023-02-22T11:02:22.105Z,13.60
2023-02-22T11:04:52.869Z,14.35
2023-02-22T11:07:24.775Z,13.00
2023-02-22T11:09:55.107Z,11.65
2023-02-22T11:12:34.800Z,12.60
2023-02-22T11:15:18.899Z,13.35
2023-02-22T11:17:50.318Z,14.68
2023-02-22T11:20:25.611Z,16.10
2023-02-22T11:22:56.452Z,16.02
2023-02-22T11:25:29.135Z,15.60
2023-02-22T11:28:00.483Z,15.30
2023-02-22T11:30:33.872Z,17.63
2023-02-22T11:33:25.655Z,14.88
2023-02-22T11:35:55.927Z,14.95
2023-02-22T11:38:25.430Z,18.35
2023-02-22T11:41:12.294Z,16.63
2023-02-22T11:43:41.215Z,18.02
2023-02-22T11:46:15.151Z,15.57
2023-02-22T11:48:59.580Z,16.85
2023-02-22T11:51:45.035Z,18.42
2023-02-22T11:54:29.664Z,18.20
2023-02-22T11:57:16.628Z,18.08
2023-02-22T11:59:55.975Z,18.85
2023-02-22T12:02:51.827Z,16.15
2023-02-22T12:05:48.955Z,18.77
2023-02-22T12:08:26.850Z,17.15
2023-02-22T12:11:10.668Z,16.50
2023-02-22T12:13:55.030Z,18.80
2023-02-22T12:16:38.046Z,18.50
2023-02-22T12:19:22.352Z,16.70
2023-02-22T12:22:02.677Z,17.42
2023-02-22T12:24:38.329Z,16.88
2023-02-22T12:27:12.708Z,15.60
2023-02-22T12:29:44.988Z,21.23
2023-02-22T12:32:19.601Z,18.83
2023-02-22T12:34:54.457Z,17.63
2023-02-22T12:37:28.947Z,17.98
2023-02-22T12:40:08.555Z,18.52
2023-02-22T12:42:54.063Z,15.77
2023-02-22T12:45:30.039Z,16.23
2023-02-22T12:48:15.583Z,17.15
2023-02-22T12:50:46.519Z,18.42
2023-02-22T12:53:26.323Z,18.30
2023-02-22T12:56:00.636Z,18.88
2023-02-22T12:58:34.324Z,19.58
2023-02-22T13:01:07.046Z,20.02
2023-02-22T13:03:38.791Z,20.95
2023-02-22T13:06:22.770Z,16.05
2023-02-22T13:09:03.729Z,17.48
2023-02-22T13:11:37.681Z,17.63
2023-02-22T13:14:18.394Z,18.67
2023-02-22T13:16:53.523Z,20.63
2023-02-22T13:19:43.215Z,17.92
2023-02-22T13:22:19.665Z,15.02
2023-02-22T13:25:02.425Z,15.05
2023-02-22T13:27:38.849Z,14.77
2023-02-22T13:30:16.256Z,19.95
2023-02-22T13:33:07.278Z,16.38
2023-02-22T13:35:52.326Z,12.80
2023-02-22T13:38:52.089Z,15.88
2023-02-22T13:41:57.600Z,14.23
2023-02-22T13:45:00.041Z,18.30
2023-02-22T13:48:02.207Z,15.25
2023-02-22T13:51:04.716Z,13.40
2023-02-22T13:53:45.179Z,16.42
2023-02-22T13:56:17.059Z,18.50
2023-02-22T13:58:50.962Z,15.95
2023-02-22T14:01:38.989Z,16.35
2023-02-22T14:04:39.892Z,13.98
2023-02-22T14:07:59.612Z,16.65
2023-02-22T14:10:51.893Z,15.43
2023-02-22T14:13:22.583Z,15.88
2023-02-22T14:16:21.057Z,16.85
2023-02-22T14:18:54.521Z,15.20
2023-02-22T14:21:24.863Z,15.95
2023-02-22T14:23:58.484Z,13.50
2023-02-22T14:26:29.836Z,15.25
2023-02-22T14:29:03.036Z,16.08
2023-02-22T14:31:55.807Z,17.90
2023-02-22T14:34:48.723Z,15.43
2023-02-22T14:37:19.786Z,16.70
2023-02-22T14:39:51.481Z,16.73
2023-02-22T14:42:24.422Z,15.48
2023-02-22T14:47:29.659Z,15.38
2023-02-22T14:50:07.419Z,14.30
2023-02-22T14:52:39.736Z,20.10
2023-02-22T14:55:19.314Z,17.85
2023-02-22T14:58:00.301Z,14.32
2023-02-22T15:00:37.802Z,13.40
2023-02-22T15:03:08.172Z,13.52
2023-02-22T15:05:39.833Z,15.25
2023-02-22T15:08:11.330Z,15.25
2023-02-22T15:10:46.304Z,13.25
2023-02-22T15:13:23.915Z,16.33
2023-02-22T15:16:01.564Z,13.70
2023-02-22T15:18:35.254Z,13.88
2023-02-22T15:21:13.200Z,15.27
2023-02-22T15:23:44.452Z,15.98
2023-02-22T15:26:24.325Z,13.52
2023-02-22T15:28:56.877Z,13.05
2023-02-22T15:31:31.698Z,13.57
2023-02-22T15:34:11.952Z,15.45
2023-02-22T15:36:40.597Z,17.08
2023-02-22T15:39:25.572Z,13.63
2023-02-22T15:42:06.518Z,14.23
2023-02-22T15:44:40.784Z,15.68
2023-02-22T15:47:13.383Z,18.58
2023-02-22T15:49:45.448Z,15.70
2023-02-22T15:52:21.202Z,15.30
2023-02-22T15:55:06.720Z,12.13
2023-02-22T15:57:40.887Z,15.48
2023-02-22T16:00:22.085Z,14.02
2023-02-22T16:02:51.981Z,13.52
2023-02-22T16:05:21.648Z,15.02
2023-02-22T16:07:52.418Z,14.77
2023-02-22T16:10:30.015Z,14.60
2023-02-22T16:13:31.135Z,13.68
2023-02-22T16:16:03.288Z,13.63
2023-02-22T16:18:34.081Z,16.02
2023-02-22T16:21:10.487Z,15.35
2023-02-22T16:23:46.438Z,15.52
2023-02-22T16:26:24.565Z,14.60
2023-02-22T16:28:57.458Z,22.40
2023-02-22T16:31:29.421Z,20.75
2023-02-22T16:34:00.955Z,16.75
2023-02-22T16:36:41.573Z,16.92
2023-02-22T16:39:10.802Z,18.05
2023-02-22T16:41:39.766Z,16.55
2023-02-22T16:44:09.086Z,16.48
2023-02-22T16:46:38.317Z,15.23
2023-02-22T16:49:06.982Z,16.92
2023-02-22T16:51:45.067Z,14.98
2023-02-22T16:54:15.516Z,15.80
2023-02-22T16:56:43.962Z,17.02
2023-02-22T16:59:15.526Z,16.75
2023-02-22T17:01:48.057Z,15.13
2023-02-22T17:04:17.724Z,13.05
2023-02-22T17:06:47.454Z,16.38
2023-02-22T17:09:16.265Z,15.65
2023-02-22T17:11:46.257Z,14.20
2023-02-22T17:14:26.149Z,21.58
2023-02-22T17:16:54.702Z,17.20
2023-02-22T17:19:28.656Z,17.75
2023-02-22T17:22:01.109Z,18.27
2023-02-22T17:24:30.025Z,20.40
2023-02-22T17:27:02.856Z,19.33
2023-02-22T17:29:31.302Z,18.65
2023-02-22T17:32:00.550Z,26.42
2023-02-22T17:34:30.084Z,24.95
2023-02-22T17:36:59.878Z,21.95
2023-02-22T17:39:28.645Z,29.20
2023-02-22T17:41:57.835Z,32.08
2023-02-22T17:44:27.202Z,31.20
2023-02-22T17:46:56.920Z,31.23
2023-02-22T17:49:25.731Z,29.05
2023-02-22T17:51:54.119Z,30.15
2023-02-22T17:54:24.674Z,30.75
2023-02-22T17:56:54.123Z,29.38
2023-02-22T17:59:22.879Z,34.17
2023-02-22T18:01:52.808Z,27.50
2023-02-22T18:04:21.151Z,29.70
2023-02-22T18:06:52.420Z,28.92
2023-02-22T18:09:21.877Z,30.60
2023-02-22T18:11:51.944Z,27.52
2023-02-22T18:14:20.623Z,26.63
2023-02-22T18:16:49.458Z,29.38
2023-02-22T18:19:22.090Z,30.58
2023-02-22T18:21:52.587Z,28.27
2023-02-22T18:24:21.748Z,30.02
2023-02-22T18:26:53.135Z,31.60
2023-02-22T18:29:22.560Z,31.55
2023-02-22T18:31:51.132Z,32.08
2023-02-22T18:34:19.520Z,33.15
2023-02-22T18:36:48.713Z,26.92
2023-02-22T18:39:17.626Z,28.73
2023-02-22T18:41:48.695Z,31.92
2023-02-22T18:44:19.301Z,35.95
2023-02-22T18:46:49.083Z,30.00
2023-02-22T18:49:17.625Z,33.90
2023-02-22T18:51:47.460Z,32.33
2023-02-22T18:54:15.916Z,30.30
2023-02-22T18:56:44.575Z,35.03
2023-02-22T18:59:16.315Z,31.30
2023-02-22T19:01:49.191Z,33.85
2023-02-22T19:04:19.781Z,33.55
2023-02-22T19:06:51.579Z,36.80
2023-02-22T19:09:20.308Z,36.40
2023-02-22T19:11:50.893Z,32.08
2023-02-22T19:14:19.784Z,36.63
2023-02-22T19:16:50.827Z,38.17
2023-02-22T19:19:20.998Z,34.50
2023-02-22T19:21:49.723Z,38.53
2023-02-22T19:24:19.746Z,36.63
2023-02-22T19:27:04.476Z,41.42
2023-02-22T19:29:33.208Z,43.97
2023-02-22T19:32:03.049Z,47.15
2023-02-22T19:34:33.824Z,37.47
2023-02-22T19:37:02.191Z,41.22
2023-02-22T19:39:33.822Z,40.58
2023-02-22T19:42:06.031Z,37.35
2023-02-22T19:44:34.615Z,42.60
2023-02-22T19:47:08.996Z,40.97
2023-02-22T19:49:41.257Z,42.30
2023-02-22T19:52:09.903Z,45.40
2023-02-22T19:54:41.526Z,39.60
2023-02-22T19:57:10.212Z,41.83
2023-02-22T19:59:39.138Z,46.53
2023-02-22T20:02:12.147Z,45.50
2023-02-22T20:04:41.793Z,44.90
2023-02-22T20:07:10.375Z,48.63
2023-02-22T20:09:39.836Z,43.50
2023-02-22T20:12:09.063Z,43.30
2023-02-22T20:14:37.797Z,44.10
2023-02-22T20:17:08.092Z,44.38
2023-02-22T20:19:40.290Z,45.30
2023-02-22T20:22:08.713Z,46.40
2023-02-22T20:24:37.761Z,48.83
2023-02-22T20:27:06.533Z,44.20
2023-02-22T20:29:35.583Z,49.72
2023-02-22T20:32:06.080Z,46.60
2023-02-22T20:34:36.353Z,42.92
2023-02-22T20:37:06.165Z,48.97
2023-02-22T20:39:35.472Z,48.10
2023-02-22T20:42:06.693Z,44.28
2023-02-22T20:44:35.420Z,43.60
2023-02-22T20:47:05.373Z,40.60
2023-02-22T20:49:33.974Z,45.28
2023-02-22T20:52:02.899Z,46.53
2023-02-22T20:54:34.559Z,48.25
2023-02-22T20:57:02.941Z,46.45
2023-02-22T20:59:32.582Z,44.00
2023-02-22T21:02:01.935Z,40.67
2023-02-22T21:04:33.986Z,41.53
2023-02-22T21:07:03.192Z,49.42
2023-02-22T21:09:36.933Z,47.28
2023-02-22T21:12:14.593Z,47.28
2023-02-22T21:14:45.019Z,43.60
2023-02-22T21:17:13.527Z,40.60
2023-02-22T21:19:45.278Z,42.40
2023-02-22T21:22:17.490Z,44.58
2023-02-22T21:24:48.253Z,45.23
2023-02-22T21:27:17.061Z,41.53
2023-02-22T21:29:46.793Z,45.70
2023-02-22T21:32:21.025Z,42.78
2023-02-22T21:34:54.813Z,42.28
2023-02-22T21:37:25.658Z,43.08
2023-02-22T21:39:55.475Z,46.55
2023-02-22T21:42:27.178Z,48.67
2023-02-22T21:44:56.439Z,40.47
2023-02-22T21:47:25.359Z,43.60
2023-02-22T21:49:55.956Z,38.65
2023-02-22T21:52:25.569Z,45.03
2023-02-22T21:54:55.642Z,40.95
2023-02-22T21:57:26.568Z,42.95
2023-02-22T21:59:55.302Z,49.80
2023-02-22T22:02:24.538Z,52.05
2023-02-22T22:04:53.849Z,48.67
2023-02-22T22:07:23.007Z,47.80
2023-02-22T22:09:56.760Z,47.10
2023-02-22T22:12:37.475Z,52.55
2023-02-22T22:15:08.906Z,55.08
2023-02-22T22:17:37.378Z,53.38
2023-02-22T22:20:06.722Z,48.53
2023-02-22T22:22:35.111Z,51.85
2023-02-22T22:25:06.450Z,44.67
2023-02-22T22:27:39.010Z,49.28
2023-02-22T22:30:11.255Z,48.83
2023-02-22T22:32:41.826Z,54.03
2023-02-22T22:35:14.727Z,53.33
2023-02-22T22:37:47.510Z,51.53
2023-02-22T22:40:17.399Z,46.20
2023-02-22T22:42:49.117Z,52.05
2023-02-22T22:45:23.132Z,53.40
2023-02-22T22:47:55.033Z,50.97
2023-02-22T22:50:26.541Z,51.58
2023-02-22T22:52:57.110Z,53.33
2023-02-22T22:55:26.062Z,54.88
2023-02-22T22:57:55.875Z,53.47
2023-02-22T23:00:32.412Z,57.85
2023-02-22T23:03:01.359Z,54.95
2023-02-22T23:05:30.586Z,54.30
2023-02-22T23:08:04.803Z,60.08
2023-02-22T23:10:33.434Z,62.55
2023-02-22T23:13:10.768Z,57.53
2023-02-22T23:15:43.483Z,56.10
2023-02-22T23:18:12.399Z,54.35
2023-02-22T23:20:41.024Z,57.65
2023-02-22T23:23:14.685Z,59.38
2023-02-22T23:25:52.658Z,49.22
2023-02-22T23:28:24.053Z,53.75
2023-02-22T23:30:57.011Z,56.95
2023-02-22T23:35:56.199Z,52.17
2023-02-22T23:38:26.275Z,58.15
2023-02-22T23:40:57.363Z,55.95
2023-02-22T23:43:32.609Z,59.70
2023-02-22T23:46:10.872Z,58.33
2023-02-22T23:48:46.767Z,63.92
2023-02-22T23:51:18.869Z,61.03
2023-02-22T23:53:49.590Z,58.83
2023-02-22T23:56:22.814Z,57.92
